createdAt,value
2023-04-15T18:20:17.240Z,99827.17
2023-04-15T18:22:09.334Z,99831.23
2023-04-15T18:24:01.071Z,99835.49
2023-04-15T18:25:53.017Z,99835.36
2023-04-15T18:27:44.988Z,99839.73
2023-04-15T18:29:36.970Z,99844.40
2023-04-15T18:31:28.564Z,99846.58
2023-04-15T18:33:20.982Z,99848.23
2023-04-15T18:35:13.948Z,99852.20
2023-04-15T18:37:06.537Z,99852.34
2023-04-15T18:41:11.815Z,99858.13
2023-04-15T18:43:03.931Z,99856.80
2023-04-15T18:44:55.969Z,99858.34
2023-04-15T18:46:49.748Z,99860.04
2023-04-15T18:48:41.637Z,99860.27
2023-04-15T18:50:33.035Z,99857.86
2023-04-15T18:52:24.501Z,99858.12
2023-04-15T18:54:16.598Z,99859.48
2023-04-15T18:56:08.155Z,99862.65
2023-04-15T18:58:09.037Z,99864.19
2023-04-15T19:00:00.851Z,99865.17
2023-04-15T19:01:52.662Z,99869.46
2023-04-15T19:03:44.333Z,99872.15
2023-04-15T19:05:36.770Z,99875.64
2023-04-15T19:07:28.114Z,99879.31
2023-04-15T19:09:20.553Z,99878.80
2023-04-15T19:11:12.336Z,99883.12
2023-04-15T19:13:04.528Z,99880.88
2023-04-15T19:14:56.384Z,99883.19
2023-04-15T19:16:47.958Z,99885.55
2023-04-15T19:18:39.804Z,99890.12
2023-04-15T19:20:31.591Z,99893.02
2023-04-15T19:22:24.632Z,99893.90
2023-04-15T19:24:17.952Z,99897.70
2023-04-15T19:26:10.349Z,99896.88
2023-04-15T19:28:02.725Z,99899.45
2023-04-15T19:29:54.714Z,99899.02
2023-04-15T19:31:47.019Z,99905.29
2023-04-15T19:33:39.044Z,99908.35
2023-04-15T19:35:30.563Z,99909.31
2023-04-15T19:39:46.224Z,99913.77
2023-04-15T19:41:39.326Z,99913.70
2023-04-15T19:43:32.666Z,99914.83
2023-04-15T19:45:24.267Z,99915.20
2023-04-15T19:47:15.970Z,99917.84
2023-04-15T19:49:07.730Z,99924.06
2023-04-15T19:51:00.989Z,99926.98
2023-04-15T19:52:53.208Z,99932.93
2023-04-15T19:54:44.441Z,99936.66
2023-04-15T19:56:36.247Z,99931.02
2023-04-15T19:58:28.150Z,99933.33
2023-04-15T20:00:21.507Z,99938.27
2023-04-15T20:02:13.573Z,99936.30
2023-04-15T20:04:05.594Z,99939.20
2023-04-15T20:05:57.492Z,99936.98
2023-04-15T20:07:51.938Z,99938.84
2023-04-15T20:09:45.460Z,99940.10
2023-04-15T20:12:46.818Z,99943.34
2023-04-15T20:13:48.941Z,99939.27
2023-04-15T20:15:41.296Z,99945.23
2023-04-15T20:17:33.761Z,99942.86
2023-04-15T20:19:25.196Z,99948.64
2023-04-15T20:21:17.291Z,99945.02
2023-04-15T20:23:08.958Z,99947.28
2023-04-15T20:25:02.020Z,99953.07
2023-04-15T20:26:53.861Z,99953.90
2023-04-15T20:28:45.548Z,99953.70
2023-04-15T20:30:39.554Z,99960.52
2023-04-15T20:32:35.616Z,99962.20
2023-04-15T20:34:27.536Z,99966.68
2023-04-15T20:36:19.278Z,99964.69
2023-04-15T20:38:11.333Z,99967.54
2023-04-15T20:40:03.515Z,99969.06
2023-04-15T20:41:55.075Z,99972.47
2023-04-15T20:43:46.788Z,99970.23
2023-04-15T20:45:38.987Z,99971.52
2023-04-15T20:47:30.620Z,99973.77
2023-04-15T20:49:22.179Z,99972.46
2023-04-15T20:51:13.789Z,99972.19
2023-04-15T20:53:06.246Z,99972.11
2023-04-15T20:54:58.190Z,99972.11
2023-04-15T20:56:49.644Z,99975.10
2023-04-15T20:58:41.325Z,99975.31
2023-04-15T21:00:33.451Z,99979.79
2023-04-15T21:02:25.640Z,99977.80
2023-04-15T21:04:17.616Z,99978.89
2023-04-15T21:06:09.215Z,99981.37
2023-04-15T21:08:01.036Z,99977.15
2023-04-15T21:10:12.482Z,99985.09
2023-04-15T21:12:04.534Z,99987.68
2023-04-15T21:13:56.176Z,99993.12
2023-04-15T21:15:50.349Z,99990.13
2023-04-15T21:17:41.926Z,99991.00
2023-04-15T21:19:35.016Z,99994.85
2023-04-15T21:21:28.183Z,99995.10
2023-04-15T21:23:20.458Z,99998.66
2023-04-15T21:25:12.482Z,99998.24
2023-04-15T21:27:04.237Z,99997.12
2023-04-15T21:28:56.447Z,99998.50
2023-04-15T21:30:49.632Z,99998.82
2023-04-15T21:32:42.407Z,100000.00
2023-04-15T21:34:33.897Z,100000.59
2023-04-15T21:36:26.903Z,99998.33
2023-04-15T21:38:20.323Z,100002.59
2023-04-15T21:40:14.754Z,100006.21
2023-04-15T21:42:06.384Z,100010.17
2023-04-15T21:43:58.384Z,100013.00
2023-04-15T21:46:22.952Z,100009.08
2023-04-15T21:48:08.048Z,100008.16
2023-04-15T21:49:59.848Z,100002.35
2023-04-15T21:51:51.463Z,100010.73
2023-04-15T21:53:42.998Z,100008.73
2023-04-15T21:55:34.874Z,100010.85
2023-04-15T21:57:26.306Z,100009.39
2023-04-15T21:59:18.904Z,100013.92
2023-04-15T22:01:10.554Z,100013.87
2023-04-15T22:03:02.185Z,100021.27
2023-04-15T22:04:54.054Z,100023.84
2023-04-15T22:06:46.597Z,100025.50
2023-04-15T22:08:48.219Z,100027.36
2023-04-15T22:11:04.530Z,100029.23
2023-04-15T22:13:01.488Z,100033.22
2023-04-15T22:14:53.195Z,100034.84
2023-04-15T22:16:45.926Z,100032.95
2023-04-15T22:18:37.739Z,100038.48
2023-04-15T22:20:29.659Z,100042.21
2023-04-15T22:22:21.203Z,100041.55
2023-04-15T22:24:31.677Z,100042.08
2023-04-15T22:26:30.775Z,100046.65
2023-04-15T22:28:22.870Z,100050.64
2023-04-15T22:30:14.642Z,100050.36
2023-04-15T22:32:07.650Z,100054.78
2023-04-15T22:33:59.661Z,100053.48
2023-04-15T22:35:51.723Z,100054.38
2023-04-15T22:37:43.344Z,100054.16
2023-04-15T22:39:35.423Z,100056.95
2023-04-15T22:41:27.566Z,100057.15
2023-04-15T22:43:19.390Z,100060.46
2023-04-15T22:45:12.645Z,100061.55
2023-04-15T22:47:04.381Z,100064.69
2023-04-15T22:48:56.158Z,100070.98
2023-04-15T22:50:48.489Z,100074.61
2023-04-15T22:52:40.376Z,100073.80
2023-04-15T22:54:32.472Z,100078.20
2023-04-15T22:56:23.970Z,100080.45
2023-04-15T22:58:18.542Z,100084.45
2023-04-15T23:00:10.337Z,100088.77
2023-04-15T23:02:02.068Z,100092.91
2023-04-15T23:03:57.376Z,100090.33
2023-04-15T23:05:57.862Z,100089.42
2023-04-15T23:07:49.754Z,100091.86
2023-04-15T23:09:41.992Z,100091.48
2023-04-15T23:11:36.500Z,100089.98
2023-04-15T23:13:28.445Z,100092.41
2023-04-15T23:15:20.239Z,100091.82
2023-04-15T23:17:11.957Z,100089.95
2023-04-15T23:19:24.393Z,100089.60
2023-04-15T23:21:17.142Z,100089.45
2023-04-15T23:23:09.297Z,100091.14
2023-04-15T23:25:01.390Z,100094.18
2023-04-15T23:26:53.326Z,100086.17
2023-04-15T23:28:45.070Z,100087.45
2023-04-15T23:30:36.868Z,100089.15
2023-04-15T23:32:28.863Z,100098.98
2023-04-15T23:34:20.689Z,100098.22
2023-04-15T23:36:12.515Z,100099.52
2023-04-15T23:38:06.723Z,100098.58
2023-04-15T23:39:59.380Z,100097.62
2023-04-15T23:41:53.681Z,100094.28
2023-04-15T23:43:45.795Z,100097.98
2023-04-15T23:45:37.716Z,100103.23
2023-04-15T23:47:29.800Z,100102.89
2023-04-15T23:49:21.456Z,100101.42
2023-04-15T23:51:12.908Z,100103.05
2023-04-15T23:53:04.594Z,100099.33
2023-04-15T23:54:55.994Z,100101.33
2023-04-15T23:56:48.323Z,100099.39
2023-04-15T23:58:39.825Z,100096.60
